Latest Coastal Weather Observations for Coolangatta (QLD)

IDN60701

Issued at 4:01 am EST Thursday 30 July 2015 (issued every 10 minutes, with the page automatically refreshed every 10 minutes)

About coastal observations | Map of coastal stations | Coastal observations for NSW | Marine services | Other Formats
Station Details ID: 040717 Name: COOLANGATTA Lat: -28.17 Lon: 153.51 Height: 4.0 m
Data from the previous 72 hours. | See also: Recent months at Coolangatta (QLD)
Date/Time
EST
Temp

°C
Wind Pressure Rain
since 9am
mm
Weather Cloud Vis
km
Sea
Height
m
Swell
Dir
 
Speed
knots
Gust
knots
hPa Trend Height
m
Period
s
Dir
30/04:00am 13.0 SSW 3 4 1027.0 - 0.0 - Partly cloudy 10 - - - -
30/03:30am 13.8 SW 7 10 1027.3 - 0.0 - Partly cloudy 10 - - - -
30/03:00am 13.9 SW 6 8 1027.5 - 0.0 Drizzle Cloudy 10 - - - -
30/02:30am 14.1 SW 6 9 1027.9 - 0.0 - Partly cloudy 10 - - - -
30/02:17am 13.8 SSW 5 7 1027.9 - 0.0 - Partly cloudy 10 - - - -
30/02:00am 14.0 SSE 5 6 1028.0 - 0.0 - Partly cloudy 5 - - - -
30/01:58am 14.2 SSE 5 6 1028.0 - 0.0 - Partly cloudy 6 - - - -
30/01:30am 14.8 SSW 5 8 1028.1 - 0.0 - Partly cloudy 10 - - - -
30/01:00am 14.2 SSW 5 8 1028.4 - 0.0 - Partly cloudy 10 - - - -
30/12:30am 13.2 SW 5 6 1028.5 - 0.0 - Partly cloudy 10 - - - -
30/12:00am 14.0 SW 5 7 1029.0 - 0.0 - Cloudy 10 - - - -
 
Date/Time
EST
Temp

°C
Wind Pressure Rain
since 9am
mm
Weather Cloud Vis
km
Sea
Height
m
Swell
Dir
 
Speed
knots
Gust
knots
hPa Trend Height
m
Period
s
Dir
29/11:30pm 14.6 SW 7 9 1029.4 - 0.0 - Partly cloudy 10 - - - -
29/11:00pm 14.3 SSW 8 10 1029.3 - 0.0 - Partly cloudy 10 - - - -
29/10:30pm 12.8 SW 4 6 1029.3 - 0.0 - Partly cloudy 10 - - - -
29/10:00pm 12.7 WSW 4 5 1029.5 - 0.0 - Partly cloudy 10 - - - -
29/09:30pm 13.1 SSW 4 5 1029.4 - 0.0 - Partly cloudy 10 - - - -
29/09:00pm 13.9 SSW 5 7 1029.4 - 0.0 - Mostly cloudy 10 - - - -
29/08:30pm 13.5 SSW 3 4 1029.4 - 0.0 - Partly cloudy 10 - - - -
29/08:00pm 13.3 SW 4 6 1029.7 - 0.0 - - 10 - - - -
29/07:30pm 14.2 SSW 4 5 1029.5 - 0.0 - Partly cloudy 10 - - - -
29/07:00pm 14.1 CALM 0 3 1029.3 - 0.0 - Cloudy 10 - - - -
29/06:30pm 14.2 SW 5 6 1029.0 - 0.0 - Partly cloudy 10 - - - -
29/06:00pm 14.6 S 5 6 1028.8 - 0.0 - Mostly clear 10 - - - -
29/05:30pm 15.1 S 5 7 1028.7 - 0.0 - - 10 - - - -
29/05:00pm 16.5 SSE 6 9 1028.4 - 0.0 - - 10 - - - -
29/04:30pm 18.3 SSE 7 9 1028.1 - 0.0 - - 10 - - - -
29/04:00pm 19.0 SSE 8 11 1028.1 - 0.0 - - 10 - - - -
29/03:30pm 19.4 SSE 9 11 1028.0 - 0.0 - - 10 - - - -
29/03:00pm 19.8 SSE 8 12 1028.2 - 0.0 - - 10 - - - -
29/02:30pm 20.2 SSW 7 11 1028.2 - 0.0 - - 10 - - - -
29/02:00pm 19.7 S 8 12 1028.5 - 0.0 - - 10 - - - -
29/01:30pm 19.4 SSW 9 13 1028.8 - 0.0 - - 10 - - - -
29/01:00pm 19.4 SSW 7 11 1029.2 - 0.0 - - 10 - - - -
29/12:30pm 19.3 S 9 12 1029.7 - 0.0 - - 10 - - - -
29/12:00pm 19.0 S 10 15 1030.1 - 0.0 - - 10 - - - -
29/11:30am 18.9 S 11 15 1030.7 - 0.0 - - 10 - - - -
29/11:00am 18.6 SSW 9 13 1031.2 - 0.0 - - 10 - - - -
29/10:30am 17.8 SSW 10 14 1031.6 - 0.0 - - 10 - - - -
29/10:00am 17.6 SSW 10 14 1032.0 - 0.0 - - 10 - - - -
29/09:30am 16.8 SSW 11 15 1032.3 - 0.0 - - 10 - - - -
29/09:00am 16.0 SSW 9 13 1032.2 - 0.0 - - 10 - - - -
29/08:30am 15.6 SSW 8 15 1031.9 - 0.0 - - 10 - - - -
29/08:00am 14.6 SSW 9 13 1031.7 - 0.0 - - 10 - - - -
29/07:30am 13.8 SSW 10 15 1031.8 - 0.0 - - 10 - - - -
29/07:00am 13.1 SSW 9 16 1031.4 - 0.0 - - 10 - - - -
29/06:30am 13.1 SSW 10 15 1031.1 - 0.0 - - 10 - - - -
29/06:00am 12.8 SSW 9 14 1030.8 - 0.0 - - 10 - - - -
29/05:30am 13.0 SSW 10 15 1030.3 - 0.0 - - 10 - - - -
29/05:00am 12.9 SSW 9 15 1030.1 - 0.0 - - 10 - - - -
29/04:30am 13.0 SSW 9 14 1029.9 - 0.0 - - 10 - - - -
29/04:00am 13.3 SSW 10 15 1029.9 - 0.0 - - 10 - - - -
29/03:30am 13.8 SW 11 15 1029.9 - 0.0 - - 10 - - - -
29/03:00am 13.5 SSW 9 14 1030.0 - 0.0 - - 10 - - - -
29/02:30am 13.4 SSW 8 14 1030.0 - 0.0 - - 10 - - - -
29/02:00am 13.8 SSW 9 14 1030.0 - 0.0 - - 10 - - - -
29/01:30am 13.7 SW 8 15 1030.1 - 0.0 - - 10 - - - -
29/01:00am 13.6 SW 8 11 1030.3 - 0.0 - - 10 - - - -
29/12:30am 13.6 SW 9 14 1030.5 - 0.0 - - 10 - - - -
29/12:00am 13.2 SW 8 11 1030.4 - 0.0 - - 10 - - - -
 
Date/Time
EST
Temp

°C
Wind Pressure Rain
since 9am
mm
Weather Cloud Vis
km
Sea
Height
m
Swell
Dir
 
Speed
knots
Gust
knots
hPa Trend Height
m
Period
s
Dir
28/11:30pm 13.4 SW 9 13 1030.6 - 0.0 - - 10 - - - -
28/11:00pm 13.2 SSW 8 11 1030.8 - 0.0 - - 10 - - - -
28/10:30pm 13.3 SW 8 12 1030.9 - 0.0 - - 10 - - - -
28/10:00pm 13.0 SSW 8 13 1030.9 - 0.0 - - 10 - - - -
28/09:30pm 12.6 SSW 7 10 1030.9 - 0.0 - - 10 - - - -
28/09:00pm 12.6 SSW 8 10 1031.0 - 0.0 - - 10 - - - -
28/08:30pm 13.1 SSW 8 11 1030.9 - 0.0 - - 10 - - - -
28/08:00pm 12.1 SSW 6 8 1030.9 - 0.0 - - 10 - - - -
28/07:30pm 12.3 S 7 9 1030.7 - 0.0 - - 10 - - - -
28/07:00pm 12.7 S 7 10 1030.5 - 0.0 - - 10 - - - -
28/06:30pm 13.5 S 9 12 1030.2 - 0.0 - - 10 - - - -
28/06:00pm 13.6 S 8 12 1029.7 - 0.0 - - 10 - - - -
28/05:30pm 13.1 SSE 5 7 1029.4 - 0.0 - - 10 - - - -
28/05:00pm 15.1 S 8 11 1029.2 - 0.0 - - 10 - - - -
28/04:30pm 16.4 S 10 13 1029.1 - 0.0 - - 10 - - - -
28/04:00pm 17.3 SSE 11 15 1028.8 - 0.0 - - 10 - - - -
28/03:30pm 17.7 SSE 12 17 1028.7 - 0.0 - - 10 - - - -
28/03:00pm 18.1 SSE 13 18 1028.4 - 0.0 - - 10 - - - -
28/02:30pm 18.3 SSE 12 17 1028.4 - 0.0 - - 10 - - - -
28/02:00pm 18.5 SSE 12 17 1028.5 - 0.0 - - 10 - - - -
28/01:30pm 18.7 SSE 11 16 1028.7 - 0.0 - - - - - - -
28/01:00pm 18.1 SSE 11 15 1028.9 - 0.0 - - - - - - -
28/12:30pm 18.4 SSE 12 16 1029.4 - 0.0 - - 10 - - - -
28/12:00pm 18.1 S 11 15 1029.6 - 0.0 - - 10 - - - -
28/11:30am 17.5 SSW 10 16 1030.1 - 0.0 - - 10 - - - -
28/11:00am 17.6 S 11 17 1030.4 - 0.0 - - 10 - - - -
28/10:30am 17.2 S 11 15 1030.6 - 0.0 - - 10 - - - -
28/10:00am 16.4 SSW 11 16 1030.7 - 0.0 - - 10 - - - -
28/09:30am 15.9 SSW 10 16 1030.5 - 0.0 - - 10 - - - -
28/09:00am 15.2 SSW 9 14 1030.3 - 0.0 - - 10 - - - -
28/08:30am 14.7 SW 8 11 1030.0 - 0.0 - - 10 - - - -
28/08:00am 13.7 SW 9 14 1029.5 - 0.0 - - 10 - - - -
28/07:30am 13.0 SW 8 11 1029.4 - 0.0 - - 10 - - - -
28/07:00am 12.4 SW 8 11 1028.9 - 0.0 - - 10 - - - -
28/06:30am 12.1 SSW 8 13 1028.6 - 0.0 - - 10 - - - -
28/06:00am 12.8 SSW 10 17 1028.2 - 0.0 - Partly cloudy 10 - - - -
28/05:30am 13.0 SSW 9 15 1027.9 - 0.0 - Partly cloudy 10 - - - -
28/05:00am 12.9 SSW 9 11 1027.5 - 0.0 - Partly cloudy 10 - - - -
28/04:30am 12.8 SSW 6 13 1027.3 - 0.0 - Cloudy 10 - - - -
28/04:00am 12.9 SSW 7 9 1027.1 - 0.0 - Partly cloudy 10 - - - -
28/03:30am 12.9 SSW 7 10 1026.9 - 0.0 - Partly cloudy 10 - - - -
28/03:00am 13.5 S 9 13 1026.8 - 0.0 - Partly cloudy 10 - - - -
28/02:30am 13.8 SSW 9 14 1026.7 - 0.0 - Partly cloudy 10 - - - -
28/02:00am 15.0 SSW 9 12 1026.6 - 0.0 - Cloudy 10 - - - -
28/01:30am 15.1 SSW 7 9 1026.8 - 0.0 - Cloudy 10 - - - -
28/01:00am 15.1 SSW 7 11 1026.7 - 0.0 - Cloudy 10 - - - -
28/12:30am 14.9 SSW 7 10 1026.6 - 0.0 - Partly cloudy 10 - - - -
28/12:00am 14.7 SSW 7 9 1026.4 - 0.0 - Partly cloudy 10 - - - -
 
Date/Time
EST
Temp

°C
Wind Pressure Rain
since 9am
mm
Weather Cloud Vis
km
Sea
Height
m
Swell
Dir
 
Speed
knots
Gust
knots
hPa Trend Height
m
Period
s
Dir
27/11:30pm 15.3 SSW 7 10 1026.4 - 0.0 - Cloudy 10 - - - -
27/11:00pm 15.3 SSW 7 11 1026.5 - 0.0 - Partly cloudy 10 - - - -
27/10:30pm 13.9 SSW 5 7 1026.3 - 0.0 - Partly cloudy 10 - - - -
27/10:00pm 13.1 SW 4 5 1026.3 - 0.0 - Partly cloudy 10 - - - -
27/09:30pm 13.1 SW 5 6 1025.9 - 0.0 - - 10 - - - -
27/09:00pm 13.3 WSW 6 7 1025.7 - 0.0 - Mostly cloudy 10 - - - -
27/08:30pm 12.5 SW 4 5 1025.5 - 0.0 - - 10 - - - -
27/08:00pm 13.0 WSW 4 5 1025.2 - 0.0 - - 10 - - - -
27/07:30pm 13.1 WSW 6 7 1024.8 - 0.0 - - 10 - - - -
27/07:00pm 13.3 WSW 6 7 1024.3 - 0.0 - - 10 - - - -
27/06:30pm 13.8 WSW 5 6 1024.0 - 0.0 - - 10 - - - -
27/06:00pm 14.1 SW 5 6 1023.6 - 0.0 - Mostly clear 10 - - - -
27/05:30pm 15.6 S 4 5 1023.4 - 0.0 - - 10 - - - -
27/05:00pm 16.6 S 4 6 1023.0 - 0.0 - - 10 - - - -
27/04:30pm 17.6 SSE 6 9 1022.6 - 0.0 - - 10 - - - -
27/04:00pm 18.5 S 5 7 1022.3 - 0.0 - - 10 - - - -
27/03:30pm 19.1 S 8 10 1022.0 - 0.0 - - 10 - - - -
27/03:00pm 19.5 SSW 6 9 1021.9 - 0.0 - Partly cloudy 10 - - - -
27/02:30pm 19.7 S 7 11 1021.8 - 0.0 - - 10 - - - -
27/02:00pm 19.9 SSW 8 11 1021.9 - 0.0 - - 10 - - - -
27/01:30pm 20.4 S 9 13 1021.8 - 0.0 - - 10 - - - -
27/01:00pm 20.8 S 8 11 1022.0 - 0.0 - - 10 - - - -
27/12:30pm 20.2 NE 4 8 1022.5 - 0.0 - - 10 - - - -
27/12:00pm 20.4 NNE 7 9 1022.7 - 0.0 - - 10 - - - -
27/11:30am 20.4 N 8 11 1023.0 - 0.0 - - 10 - - - -
27/11:00am 20.1 NNE 5 8 1023.3 - 0.0 - - 10 - - - -
27/10:30am 19.9 SSW 4 7 1023.5 - 0.0 - - 10 - - - -
27/10:00am 19.6 SW 3 5 1023.6 - 0.0 - - 10 - - - -
27/09:30am 18.7 WSW 4 5 1023.7 - 0.0 - - 10 - - - -
27/09:00am 17.5 SSE 5 6 1023.7 - 0.2 - - 10 - - - -
27/08:30am 15.4 WSW 3 4 1023.6 - 0.2 - - 10 - - - -
27/08:00am 13.5 WSW 4 5 1023.2 - 0.2 - - 10 - - - -
27/07:30am 12.1 SW 4 5 1023.1 - 0.2 - - 10 - - - -
27/07:00am 9.7 WSW 3 5 1022.8 - 0.2 - - 10 - - - -
27/06:30am 9.8 N 1 6 1022.5 - 0.2 - - 10 - - - -
27/06:00am 9.5 CALM 0 3 1021.9 - 0.2 - - 10 - - - -
27/05:30am 9.2 NW 2 7 1021.3 - 0.2 - - 10 - - - -
27/05:00am 9.4 NW 4 5 1021.0 - 0.2 - - 10 - - - -
27/04:30am 10.1 WNW 3 4 1020.8 - 0.2 - - 10 - - - -

Other Formats:

Comma delimited format used in spreadsheet applications
http://www.bom.gov.au/fwo/IDN60701/IDN60701.94592.axf

JavaScript Object Notation format (JSON) in row-major order
http://www.bom.gov.au/fwo/IDN60701/IDN60701.94592.json